sensor_id;sensor_type;location;lat;lon;timestamp;temperature;humidity
10453;DHT22;5274;51.992;8.518;2022-09-23T00:00:28;9.60;99.90
10453;DHT22;5274;51.992;8.518;2022-09-23T00:02:53;9.60;99.90
10453;DHT22;5274;51.992;8.518;2022-09-23T00:05:19;9.60;20.60
10453;DHT22;5274;51.992;8.518;2022-09-23T00:07:44;9.60;36.00
10453;DHT22;5274;51.992;8.518;2022-09-23T00:10:10;9.60;99.90
10453;DHT22;5274;51.992;8.518;2022-09-23T00:12:35;9.50;99.90
10453;DHT22;5274;51.992;8.518;2022-09-23T00:15:02;9.50;99.90
10453;DHT22;5274;51.992;8.518;2022-09-23T00:17:27;9.40;99.90
10453;DHT22;5274;51.992;8.518;2022-09-23T00:19:53;9.40;99.90
10453;DHT22;5274;51.992;8.518;2022-09-23T00:22:19;9.40;99.90
10453;DHT22;5274;51.992;8.518;2022-09-23T00:24:45;9.40;99.90
10453;DHT22;5274;51.992;8.518;2022-09-23T00:27:10;9.30;99.90
10453;DHT22;5274;51.992;8.518;2022-09-23T00:29:36;9.30;1.00
10453;DHT22;5274;51.992;8.518;2022-09-23T00:32:02;9.30;1.00
10453;DHT22;5274;51.992;8.518;2022-09-23T00:34:28;9.30;1.00
10453;DHT22;5274;51.992;8.518;2022-09-23T00:36:54;9.20;1.00
10453;DHT22;5274;51.992;8.518;2022-09-23T00:39:21;9.20;1.00
10453;DHT22;5274;51.992;8.518;2022-09-23T00:41:47;9.20;99.90
10453;DHT22;5274;51.992;8.518;2022-09-23T00:44:48;9.20;99.90
10453;DHT22;5274;51.992;8.518;2022-09-23T00:52:26;9.20;1.00
10453;DHT22;5274;51.992;8.518;2022-09-23T00:54:54;9.20;99.90
10453;DHT22;5274;51.992;8.518;2022-09-23T00:57:23;9.20;99.90
10453;DHT22;5274;51.992;8.518;2022-09-23T00:59:49;9.30;99.90
10453;DHT22;5274;51.992;8.518;2022-09-23T01:02:16;9.30;99.90
10453;DHT22;5274;51.992;8.518;2022-09-23T01:08:06;9.30;1.00
10453;DHT22;5274;51.992;8.518;2022-09-23T01:13:41;9.30;1.00
10453;DHT22;5274;51.992;8.518;2022-09-23T01:30:16;9.30;99.90
10453;DHT22;5274;51.992;8.518;2022-09-23T01:33:01;9.20;59.70
10453;DHT22;5274;51.992;8.518;2022-09-23T01:35:42;9.20;99.90
10453;DHT22;5274;51.992;8.518;2022-09-23T01:46:30;9.30;1.00
10453;DHT22;5274;51.992;8.518;2022-09-23T01:49:14;9.30;99.90
10453;DHT22;5274;51.992;8.518;2022-09-23T01:51:52;9.20;6.20
10453;DHT22;5274;51.992;8.518;2022-09-23T01:54:37;9.30;1.00
10453;DHT22;5274;51.992;8.518;2022-09-23T01:57:08;9.30;1.00
10453;DHT22;5274;51.992;8.518;2022-09-23T01:59:39;9.30;51.40
10453;DHT22;5274;51.992;8.518;2022-09-23T02:04:50;9.40;99.90
10453;DHT22;5274;51.992;8.518;2022-09-23T02:07:27;9.40;1.00
10453;DHT22;5274;51.992;8.518;2022-09-23T02:09:59;9.40;99.90
10453;DHT22;5274;51.992;8.518;2022-09-23T02:12:29;9.40;99.90
10453;DHT22;5274;51.992;8.518;2022-09-23T02:15:06;9.40;1.00
10453;DHT22;5274;51.992;8.518;2022-09-23T02:17:40;9.40;36.50
10453;DHT22;5274;51.992;8.518;2022-09-23T02:20:09;9.40;99.90
10453;DHT22;5274;51.992;8.518;2022-09-23T02:22:43;9.40;40.20
10453;DHT22;5274;51.992;8.518;2022-09-23T02:25:12;9.40;99.90
10453;DHT22;5274;51.992;8.518;2022-09-23T02:27:48;9.40;1.00
10453;DHT22;5274;51.992;8.518;2022-09-23T02:30:21;9.40;99.90
10453;DHT22;5274;51.992;8.518;2022-09-23T02:33:32;9.40;99.90
10453;DHT22;5274;51.992;8.518;2022-09-23T02:36:24;9.40;73.20
10453;DHT22;5274;51.992;8.518;2022-09-23T02:38:55;9.40;99.90
10453;DHT22;5274;51.992;8.518;2022-09-23T02:41:37;9.40;99.90
10453;DHT22;5274;51.992;8.518;2022-09-23T02:44:14;9.40;1.00
10453;DHT22;5274;51.992;8.518;2022-09-23T02:46:41;9.40;69.50
10453;DHT22;5274;51.992;8.518;2022-09-23T02:49:20;9.40;1.00
10453;DHT22;5274;51.992;8.518;2022-09-23T02:51:46;9.40;1.00
10453;DHT22;5274;51.992;8.518;2022-09-23T02:54:15;9.40;99.90
10453;DHT22;5274;51.992;8.518;2022-09-23T02:56:42;9.30;1.00
10453;DHT22;5274;51.992;8.518;2022-09-23T02:59:09;9.40;1.00
10453;DHT22;5274;51.992;8.518;2022-09-23T03:07:46;9.40;1.00
10453;DHT22;5274;51.992;8.518;2022-09-23T03:13:16;9.50;1.00
10453;DHT22;5274;51.992;8.518;2022-09-23T03:18:48;9.40;1.00
10453;DHT22;5274;51.992;8.518;2022-09-23T03:21:27;9.40;99.10
10453;DHT22;5274;51.992;8.518;2022-09-23T03:23:54;9.50;1.00
10453;DHT22;5274;51.992;8.518;2022-09-23T03:26:27;9.50;1.00
10453;DHT22;5274;51.992;8.518;2022-09-23T03:28:53;9.50;1.00
10453;DHT22;5274;51.992;8.518;2022-09-23T03:31:19;9.50;1.00
10453;DHT22;5274;51.992;8.518;2022-09-23T03:33:51;9.50;1.00
10453;DHT22;5274;51.992;8.518;2022-09-23T03:36:35;9.50;1.00
10453;DHT22;5274;51.992;8.518;2022-09-23T03:39:28;9.50;1.00
10453;DHT22;5274;51.992;8.518;2022-09-23T03:41:58;9.50;1.00
10453;DHT22;5274;51.992;8.518;2022-09-23T03:44:25;9.60;1.00
10453;DHT22;5274;51.992;8.518;2022-09-23T03:46:57;9.60;1.00
10453;DHT22;5274;51.992;8.518;2022-09-23T03:49:25;9.60;1.00
10453;DHT22;5274;51.992;8.518;2022-09-23T03:51:52;9.60;1.00
10453;DHT22;5274;51.992;8.518;2022-09-23T03:54:18;9.60;1.00
10453;DHT22;5274;51.992;8.518;2022-09-23T03:56:45;9.50;99.90
10453;DHT22;5274;51.992;8.518;2022-09-23T03:59:12;9.40;1.00
10453;DHT22;5274;51.992;8.518;2022-09-23T04:01:39;9.50;1.00
10453;DHT22;5274;51.992;8.518;2022-09-23T04:04:06;9.50;99.90
10453;DHT22;5274;51.992;8.518;2022-09-23T04:06:31;9.50;1.00
10453;DHT22;5274;51.992;8.518;2022-09-23T04:08:57;9.50;1.00
10453;DHT22;5274;51.992;8.518;2022-09-23T04:11:23;9.50;1.00
10453;DHT22;5274;51.992;8.518;2022-09-23T04:13:48;9.50;99.90
10453;DHT22;5274;51.992;8.518;2022-09-23T04:16:13;9.50;99.90
10453;DHT22;5274;51.992;8.518;2022-09-23T04:18:39;9.50;99.90
10453;DHT22;5274;51.992;8.518;2022-09-23T04:21:05;9.50;1.00
10453;DHT22;5274;51.992;8.518;2022-09-23T04:23:30;9.40;1.00
10453;DHT22;5274;51.992;8.518;2022-09-23T04:25:56;9.40;1.00
10453;DHT22;5274;51.992;8.518;2022-09-23T04:28:21;9.50;1.00
10453;DHT22;5274;51.992;8.518;2022-09-23T04:30:47;9.50;99.90
10453;DHT22;5274;51.992;8.518;2022-09-23T04:33:14;9.50;99.90
10453;DHT22;5274;51.992;8.518;2022-09-23T04:35:40;9.60;99.90
10453;DHT22;5274;51.992;8.518;2022-09-23T04:38:09;9.60;99.90
10453;DHT22;5274;51.992;8.518;2022-09-23T04:40:35;9.60;99.90
10453;DHT22;5274;51.992;8.518;2022-09-23T04:43:00;9.60;99.90
10453;DHT22;5274;51.992;8.518;2022-09-23T04:45:26;9.60;83.80
10453;DHT22;5274;51.992;8.518;2022-09-23T04:47:51;9.60;99.90
10453;DHT22;5274;51.992;8.518;2022-09-23T04:50:17;9.50;99.90
10453;DHT22;5274;51.992;8.518;2022-09-23T04:52:42;9.50;99.90
10453;DHT22;5274;51.992;8.518;2022-09-23T04:55:08;9.50;99.90
10453;DHT22;5274;51.992;8.518;2022-09-23T04:57:34;9.50;99.90
10453;DHT22;5274;51.992;8.518;2022-09-23T04:59:59;9.50;99.90
10453;DHT22;5274;51.992;8.518;2022-09-23T05:02:25;9.40;1.00
10453;DHT22;5274;51.992;8.518;2022-09-23T05:04:52;9.40;1.00
10453;DHT22;5274;51.992;8.518;2022-09-23T05:07:18;9.40;1.00
10453;DHT22;5274;51.992;8.518;2022-09-23T05:09:44;9.40;1.00
10453;DHT22;5274;51.992;8.518;2022-09-23T05:12:10;9.30;1.00
10453;DHT22;5274;51.992;8.518;2022-09-23T05:14:36;9.30;1.00
10453;DHT22;5274;51.992;8.518;2022-09-23T05:17:03;9.30;99.90
10453;DHT22;5274;51.992;8.518;2022-09-23T05:19:29;9.40;66.90
10453;DHT22;5274;51.992;8.518;2022-09-23T05:21:54;9.30;99.90
10453;DHT22;5274;51.992;8.518;2022-09-23T05:24:20;9.30;99.90
10453;DHT22;5274;51.992;8.518;2022-09-23T05:26:46;9.30;36.00
10453;DHT22;5274;51.992;8.518;2022-09-23T05:29:11;9.30;1.00
10453;DHT22;5274;51.992;8.518;2022-09-23T05:31:37;9.30;1.00
10453;DHT22;5274;51.992;8.518;2022-09-23T05:34:03;9.40;1.00
10453;DHT22;5274;51.992;8.518;2022-09-23T05:36:31;9.30;99.90
10453;DHT22;5274;51.992;8.518;2022-09-23T05:38:57;9.30;1.00
10453;DHT22;5274;51.992;8.518;2022-09-23T05:41:24;9.30;1.00
10453;DHT22;5274;51.992;8.518;2022-09-23T05:43:51;9.50;99.90
10453;DHT22;5274;51.992;8.518;2022-09-23T05:46:19;9.40;1.00
10453;DHT22;5274;51.992;8.518;2022-09-23T05:48:45;9.40;99.90
10453;DHT22;5274;51.992;8.518;2022-09-23T05:51:17;9.40;99.90
10453;DHT22;5274;51.992;8.518;2022-09-23T05:53:44;9.40;1.00
10453;DHT22;5274;51.992;8.518;2022-09-23T05:56:15;9.40;99.90
10453;DHT22;5274;51.992;8.518;2022-09-23T05:58:41;9.40;1.00
10453;DHT22;5274;51.992;8.518;2022-09-23T06:01:16;9.40;99.90
10453;DHT22;5274;51.992;8.518;2022-09-23T06:03:45;9.40;99.90
10453;DHT22;5274;51.992;8.518;2022-09-23T06:06:12;9.40;99.90
10453;DHT22;5274;51.992;8.518;2022-09-23T06:08:42;9.50;99.90
10453;DHT22;5274;51.992;8.518;2022-09-23T06:11:08;9.50;79.70
10453;DHT22;5274;51.992;8.518;2022-09-23T06:13:35;9.50;99.90
10453;DHT22;5274;51.992;8.518;2022-09-23T06:16:06;9.60;99.90
10453;DHT22;5274;51.992;8.518;2022-09-23T06:18:32;9.70;1.00
10453;DHT22;5274;51.992;8.518;2022-09-23T06:21:02;9.70;29.40
10453;DHT22;5274;51.992;8.518;2022-09-23T06:23:28;9.70;1.00
10453;DHT22;5274;51.992;8.518;2022-09-23T06:26:02;9.80;9.50
10453;DHT22;5274;51.992;8.518;2022-09-23T06:28:29;9.90;1.00
10453;DHT22;5274;51.992;8.518;2022-09-23T06:31:01;10.00;1.00
10453;DHT22;5274;51.992;8.518;2022-09-23T06:33:27;10.10;1.00
10453;DHT22;5274;51.992;8.518;2022-09-23T06:36:02;10.10;1.00
10453;DHT22;5274;51.992;8.518;2022-09-23T06:38:28;10.20;1.00
10453;DHT22;5274;51.992;8.518;2022-09-23T06:40:56;10.30;1.00
10453;DHT22;5274;51.992;8.518;2022-09-23T06:43:23;10.30;1.00
10453;DHT22;5274;51.992;8.518;2022-09-23T06:45:59;10.40;1.00
10453;DHT22;5274;51.992;8.518;2022-09-23T06:48:25;10.50;1.00
10453;DHT22;5274;51.992;8.518;2022-09-23T06:50:52;10.60;1.00
10453;DHT22;5274;51.992;8.518;2022-09-23T06:53:19;10.60;1.00
10453;DHT22;5274;51.992;8.518;2022-09-23T06:55:48;10.70;1.00
10453;DHT22;5274;51.992;8.518;2022-09-23T06:58:14;10.70;1.00
10453;DHT22;5274;51.992;8.518;2022-09-23T07:00:39;10.80;1.00
10453;DHT22;5274;51.992;8.518;2022-09-23T07:03:08;10.70;99.90
10453;DHT22;5274;51.992;8.518;2022-09-23T07:05:34;10.80;99.90
10453;DHT22;5274;51.992;8.518;2022-09-23T07:08:00;10.70;99.90
10453;DHT22;5274;51.992;8.518;2022-09-23T07:10:26;10.70;99.90
10453;DHT22;5274;51.992;8.518;2022-09-23T07:12:55;10.80;99.90
10453;DHT22;5274;51.992;8.518;2022-09-23T07:15:20;10.80;99.90
10453;DHT22;5274;51.992;8.518;2022-09-23T07:17:46;10.80;99.90
10453;DHT22;5274;51.992;8.518;2022-09-23T07:20:11;10.80;99.90
10453;DHT22;5274;51.992;8.518;2022-09-23T07:22:37;10.80;99.90
10453;DHT22;5274;51.992;8.518;2022-09-23T07:25:03;10.90;99.90
10453;DHT22;5274;51.992;8.518;2022-09-23T07:27:30;10.90;99.90
10453;DHT22;5274;51.992;8.518;2022-09-23T07:29:56;11.00;99.90
10453;DHT22;5274;51.992;8.518;2022-09-23T07:32:21;11.00;99.90
10453;DHT22;5274;51.992;8.518;2022-09-23T07:34:47;11.10;99.90
10453;DHT22;5274;51.992;8.518;2022-09-23T07:37:14;11.10;99.90
10453;DHT22;5274;51.992;8.518;2022-09-23T07:39:40;11.20;99.90
10453;DHT22;5274;51.992;8.518;2022-09-23T07:42:06;11.30;99.90
10453;DHT22;5274;51.992;8.518;2022-09-23T07:44:32;11.30;99.90
10453;DHT22;5274;51.992;8.518;2022-09-23T07:46:58;11.40;99.90
10453;DHT22;5274;51.992;8.518;2022-09-23T07:49:25;11.60;99.90
10453;DHT22;5274;51.992;8.518;2022-09-23T07:51:51;11.70;99.90
10453;DHT22;5274;51.992;8.518;2022-09-23T07:54:17;11.70;99.90
10453;DHT22;5274;51.992;8.518;2022-09-23T07:56:44;11.80;99.90
10453;DHT22;5274;51.992;8.518;2022-09-23T07:59:15;11.80;99.90
10453;DHT22;5274;51.992;8.518;2022-09-23T08:01:44;11.80;99.90
10453;DHT22;5274;51.992;8.518;2022-09-23T08:04:16;12.00;99.90
10453;DHT22;5274;51.992;8.518;2022-09-23T08:06:44;12.10;99.90
10453;DHT22;5274;51.992;8.518;2022-09-23T08:09:10;12.20;99.90
10453;DHT22;5274;51.992;8.518;2022-09-23T08:11:36;12.20;99.90
10453;DHT22;5274;51.992;8.518;2022-09-23T08:14:06;12.30;99.90
10453;DHT22;5274;51.992;8.518;2022-09-23T08:16:33;12.30;99.90
10453;DHT22;5274;51.992;8.518;2022-09-23T08:18:58;12.40;99.90
10453;DHT22;5274;51.992;8.518;2022-09-23T08:21:24;12.40;99.90
10453;DHT22;5274;51.992;8.518;2022-09-23T08:23:49;12.50;99.90
10453;DHT22;5274;51.992;8.518;2022-09-23T08:26:16;12.50;99.90
10453;DHT22;5274;51.992;8.518;2022-09-23T08:28:43;12.60;99.90
10453;DHT22;5274;51.992;8.518;2022-09-23T08:31:09;12.70;99.90
10453;DHT22;5274;51.992;8.518;2022-09-23T08:33:36;12.80;99.90
10453;DHT22;5274;51.992;8.518;2022-09-23T08:36:02;12.90;99.90
10453;DHT22;5274;51.992;8.518;2022-09-23T08:38:28;13.10;99.90
10453;DHT22;5274;51.992;8.518;2022-09-23T08:41:05;13.20;99.90
10453;DHT22;5274;51.992;8.518;2022-09-23T08:43:33;13.20;99.90
10453;DHT22;5274;51.992;8.518;2022-09-23T08:46:03;13.40;99.90
10453;DHT22;5274;51.992;8.518;2022-09-23T08:48:35;13.50;99.90
10453;DHT22;5274;51.992;8.518;2022-09-23T08:51:11;13.50;99.90
10453;DHT22;5274;51.992;8.518;2022-09-23T08:53:37;13.60;99.90
10453;DHT22;5274;51.992;8.518;2022-09-23T08:56:22;13.70;99.90
10453;DHT22;5274;51.992;8.518;2022-09-23T09:01:42;13.80;99.90
10453;DHT22;5274;51.992;8.518;2022-09-23T09:09:48;14.20;99.90
10453;DHT22;5274;51.992;8.518;2022-09-23T09:12:18;14.40;99.90
10453;DHT22;5274;51.992;8.518;2022-09-23T09:15:06;14.50;99.90
10453;DHT22;5274;51.992;8.518;2022-09-23T09:17:36;15.60;99.90
10453;DHT22;5274;51.992;8.518;2022-09-23T09:27:56;15.00;99.90
10453;DHT22;5274;51.992;8.518;2022-09-23T09:30:22;15.20;99.90
10453;DHT22;5274;51.992;8.518;2022-09-23T09:32:56;15.40;99.90
10453;DHT22;5274;51.992;8.518;2022-09-23T09:36:04;15.60;99.90
10453;DHT22;5274;51.992;8.518;2022-09-23T09:38:33;15.70;99.90
10453;DHT22;5274;51.992;8.518;2022-09-23T09:41:01;15.90;99.90
10453;DHT22;5274;51.992;8.518;2022-09-23T09:43:33;15.90;99.90
10453;DHT22;5274;51.992;8.518;2022-09-23T09:48:55;16.30;99.90
10453;DHT22;5274;51.992;8.518;2022-09-23T09:51:26;16.50;99.90
10453;DHT22;5274;51.992;8.518;2022-09-23T09:53:52;16.70;99.90
10453;DHT22;5274;51.992;8.518;2022-09-23T09:56:24;16.80;99.90
10453;DHT22;5274;51.992;8.518;2022-09-23T09:58:59;17.10;99.90
10453;DHT22;5274;51.992;8.518;2022-09-23T10:01:30;17.20;99.90
10453;DHT22;5274;51.992;8.518;2022-09-23T10:03:57;17.30;99.90
10453;DHT22;5274;51.992;8.518;2022-09-23T10:06:29;17.30;97.40
10453;DHT22;5274;51.992;8.518;2022-09-23T10:09:11;17.30;98.60
10453;DHT22;5274;51.992;8.518;2022-09-23T10:11:39;17.70;99.90
10453;DHT22;5274;51.992;8.518;2022-09-23T10:14:16;18.00;97.40
10453;DHT22;5274;51.992;8.518;2022-09-23T10:16:42;18.30;95.30
10453;DHT22;5274;51.992;8.518;2022-09-23T10:19:26;18.40;92.50
10453;DHT22;5274;51.992;8.518;2022-09-23T10:21:54;18.60;71.60
10453;DHT22;5274;51.992;8.518;2022-09-23T10:24:26;18.80;62.40
10453;DHT22;5274;51.992;8.518;2022-09-23T10:27:00;18.80;55.90
10453;DHT22;5274;51.992;8.518;2022-09-23T10:34:42;19.30;43.60
10453;DHT22;5274;51.992;8.518;2022-09-23T10:37:17;19.50;39.00
10453;DHT22;5274;51.992;8.518;2022-09-23T10:39:44;19.70;40.10
10453;DHT22;5274;51.992;8.518;2022-09-23T10:45:39;19.50;23.20
10453;DHT22;5274;51.992;8.518;2022-09-23T10:51:21;19.80;27.70
10453;DHT22;5274;51.992;8.518;2022-09-23T10:54:20;20.00;22.30
10453;DHT22;5274;51.992;8.518;2022-09-23T10:56:52;20.00;9.70
10453;DHT22;5274;51.992;8.518;2022-09-23T11:05:14;20.50;9.70
10453;DHT22;5274;51.992;8.518;2022-09-23T11:16:39;19.80;1.00
10453;DHT22;5274;51.992;8.518;2022-09-23T11:21:59;19.70;1.00
10453;DHT22;5274;51.992;8.518;2022-09-23T11:24:44;19.80;1.00
10453;DHT22;5274;51.992;8.518;2022-09-23T11:27:34;19.70;1.00
10453;DHT22;5274;51.992;8.518;2022-09-23T11:30:19;20.10;1.00
10453;DHT22;5274;51.992;8.518;2022-09-23T11:33:18;20.50;1.00
10453;DHT22;5274;51.992;8.518;2022-09-23T11:35:50;20.40;1.00
10453;DHT22;5274;51.992;8.518;2022-09-23T11:38:29;20.70;1.00
10453;DHT22;5274;51.992;8.518;2022-09-23T11:41:02;20.60;1.00
10453;DHT22;5274;51.992;8.518;2022-09-23T11:43:36;21.20;1.00
10453;DHT22;5274;51.992;8.518;2022-09-23T11:48:46;21.40;1.00
10453;DHT22;5274;51.992;8.518;2022-09-23T11:51:32;21.30;1.00
10453;DHT22;5274;51.992;8.518;2022-09-23T11:54:06;21.40;1.00
10453;DHT22;5274;51.992;8.518;2022-09-23T11:56:35;21.10;1.00
10453;DHT22;5274;51.992;8.518;2022-09-23T11:59:09;20.60;1.00
10453;DHT22;5274;51.992;8.518;2022-09-23T12:01:59;20.30;1.00
10453;DHT22;5274;51.992;8.518;2022-09-23T12:04:30;20.20;1.00
10453;DHT22;5274;51.992;8.518;2022-09-23T12:07:03;20.20;1.00
10453;DHT22;5274;51.992;8.518;2022-09-23T12:09:54;20.20;1.00
10453;DHT22;5274;51.992;8.518;2022-09-23T12:17:51;21.40;1.00
10453;DHT22;5274;51.992;8.518;2022-09-23T12:20:24;21.60;1.00
10453;DHT22;5274;51.992;8.518;2022-09-23T12:25:53;22.30;1.00
10453;DHT22;5274;51.992;8.518;2022-09-23T12:28:35;22.30;1.00
10453;DHT22;5274;51.992;8.518;2022-09-23T12:31:04;22.80;1.00
10453;DHT22;5274;51.992;8.518;2022-09-23T12:33:33;22.70;1.00
10453;DHT22;5274;51.992;8.518;2022-09-23T12:36:06;23.10;1.00
10453;DHT22;5274;51.992;8.518;2022-09-23T12:38:45;23.50;1.00
10453;DHT22;5274;51.992;8.518;2022-09-23T12:41:26;23.80;1.00
10453;DHT22;5274;51.992;8.518;2022-09-23T12:43:57;24.70;1.00
10453;DHT22;5274;51.992;8.518;2022-09-23T12:46:25;25.80;1.00
10453;DHT22;5274;51.992;8.518;2022-09-23T12:51:24;27.10;1.00
10453;DHT22;5274;51.992;8.518;2022-09-23T12:53:52;27.80;1.00
10453;DHT22;5274;51.992;8.518;2022-09-23T13:03:49;27.30;1.00
10453;DHT22;5274;51.992;8.518;2022-09-23T13:06:56;28.10;1.00
10453;DHT22;5274;51.992;8.518;2022-09-23T13:09:28;27.40;1.00
10453;DHT22;5274;51.992;8.518;2022-09-23T13:12:03;28.10;1.00
10453;DHT22;5274;51.992;8.518;2022-09-23T13:14:31;28.30;1.00
10453;DHT22;5274;51.992;8.518;2022-09-23T13:16:57;27.60;1.00
10453;DHT22;5274;51.992;8.518;2022-09-23T13:22:01;26.00;1.00
10453;DHT22;5274;51.992;8.518;2022-09-23T13:24:43;27.00;1.00
10453;DHT22;5274;51.992;8.518;2022-09-23T13:27:32;27.30;1.00
10453;DHT22;5274;51.992;8.518;2022-09-23T13:30:04;27.10;1.00
10453;DHT22;5274;51.992;8.518;2022-09-23T13:32:42;25.90;1.00
10453;DHT22;5274;51.992;8.518;2022-09-23T13:37:47;26.30;1.00
10453;DHT22;5274;51.992;8.518;2022-09-23T13:42:44;26.90;1.00
10453;DHT22;5274;51.992;8.518;2022-09-23T13:45:17;26.90;1.00
10453;DHT22;5274;51.992;8.518;2022-09-23T13:47:44;26.90;1.00
10453;DHT22;5274;51.992;8.518;2022-09-23T13:50:18;26.80;1.00
10453;DHT22;5274;51.992;8.518;2022-09-23T13:52:45;25.80;1.00
10453;DHT22;5274;51.992;8.518;2022-09-23T13:55:33;25.40;1.00
10453;DHT22;5274;51.992;8.518;2022-09-23T13:58:04;25.70;1.00
10453;DHT22;5274;51.992;8.518;2022-09-23T14:00:37;25.90;1.00
10453;DHT22;5274;51.992;8.518;2022-09-23T14:03:33;24.50;1.00
10453;DHT22;5274;51.992;8.518;2022-09-23T14:06:01;24.20;1.00
10453;DHT22;5274;51.992;8.518;2022-09-23T14:08:29;24.10;1.00
10453;DHT22;5274;51.992;8.518;2022-09-23T14:10:57;23.80;1.00
10453;DHT22;5274;51.992;8.518;2022-09-23T14:13:31;23.70;1.00
10453;DHT22;5274;51.992;8.518;2022-09-23T14:16:01;23.50;1.00
10453;DHT22;5274;51.992;8.518;2022-09-23T14:18:38;23.50;1.00
10453;DHT22;5274;51.992;8.518;2022-09-23T14:21:05;22.90;1.00
10453;DHT22;5274;51.992;8.518;2022-09-23T14:23:31;23.10;1.00
10453;DHT22;5274;51.992;8.518;2022-09-23T14:25:57;23.20;1.00
10453;DHT22;5274;51.992;8.518;2022-09-23T14:28:25;23.10;1.00
10453;DHT22;5274;51.992;8.518;2022-09-23T14:30:53;22.60;1.00
10453;DHT22;5274;51.992;8.518;2022-09-23T14:33:32;22.30;1.00
10453;DHT22;5274;51.992;8.518;2022-09-23T14:36:06;22.20;1.00
10453;DHT22;5274;51.992;8.518;2022-09-23T14:38:34;21.80;1.00
10453;DHT22;5274;51.992;8.518;2022-09-23T14:41:24;21.70;1.00
10453;DHT22;5274;51.992;8.518;2022-09-23T14:43:58;21.30;1.00
10453;DHT22;5274;51.992;8.518;2022-09-23T14:46:27;20.60;1.00
10453;DHT22;5274;51.992;8.518;2022-09-23T14:49:00;20.90;1.00
10453;DHT22;5274;51.992;8.518;2022-09-23T14:51:33;21.10;1.00
10453;DHT22;5274;51.992;8.518;2022-09-23T14:54:20;21.10;1.00
10453;DHT22;5274;51.992;8.518;2022-09-23T14:56:46;20.70;1.00
10453;DHT22;5274;51.992;8.518;2022-09-23T14:59:33;21.10;1.00
10453;DHT22;5274;51.992;8.518;2022-09-23T15:02:00;21.10;1.00
10453;DHT22;5274;51.992;8.518;2022-09-23T15:04:28;21.30;1.00
10453;DHT22;5274;51.992;8.518;2022-09-23T15:07:15;21.20;1.00
10453;DHT22;5274;51.992;8.518;2022-09-23T15:09:43;21.20;1.00
10453;DHT22;5274;51.992;8.518;2022-09-23T15:12:12;21.30;1.00
10453;DHT22;5274;51.992;8.518;2022-09-23T15:14:42;21.50;1.00
10453;DHT22;5274;51.992;8.518;2022-09-23T15:17:35;21.50;1.00
10453;DHT22;5274;51.992;8.518;2022-09-23T15:20:06;21.60;1.00
10453;DHT22;5274;51.992;8.518;2022-09-23T15:22:45;21.60;1.00
10453;DHT22;5274;51.992;8.518;2022-09-23T15:30:36;21.60;1.00
10453;DHT22;5274;51.992;8.518;2022-09-23T15:33:02;21.40;1.00
10453;DHT22;5274;51.992;8.518;2022-09-23T15:35:28;21.30;1.00
10453;DHT22;5274;51.992;8.518;2022-09-23T15:37:57;21.00;1.00
10453;DHT22;5274;51.992;8.518;2022-09-23T15:40:27;21.00;1.00
10453;DHT22;5274;51.992;8.518;2022-09-23T15:42:59;21.00;1.00
10453;DHT22;5274;51.992;8.518;2022-09-23T15:45:40;20.90;1.00
10453;DHT22;5274;51.992;8.518;2022-09-23T15:48:29;20.80;1.00
10453;DHT22;5274;51.992;8.518;2022-09-23T15:51:02;20.60;1.00
10453;DHT22;5274;51.992;8.518;2022-09-23T15:53:28;20.50;1.00
10453;DHT22;5274;51.992;8.518;2022-09-23T15:55:54;20.30;1.00
10453;DHT22;5274;51.992;8.518;2022-09-23T15:58:21;20.10;1.00
10453;DHT22;5274;51.992;8.518;2022-09-23T16:00:48;19.90;1.00
10453;DHT22;5274;51.992;8.518;2022-09-23T16:03:16;19.80;1.00
10453;DHT22;5274;51.992;8.518;2022-09-23T16:05:44;19.70;1.00
10453;DHT22;5274;51.992;8.518;2022-09-23T16:08:11;19.70;1.00
10453;DHT22;5274;51.992;8.518;2022-09-23T16:10:37;19.70;1.00
10453;DHT22;5274;51.992;8.518;2022-09-23T16:13:05;19.70;1.00
10453;DHT22;5274;51.992;8.518;2022-09-23T16:15:32;19.60;1.00
10453;DHT22;5274;51.992;8.518;2022-09-23T16:17:58;19.50;1.00
10453;DHT22;5274;51.992;8.518;2022-09-23T16:20:25;19.50;1.00
10453;DHT22;5274;51.992;8.518;2022-09-23T16:22:59;19.30;1.00
10453;DHT22;5274;51.992;8.518;2022-09-23T16:25:26;19.30;1.00
10453;DHT22;5274;51.992;8.518;2022-09-23T16:27:54;19.10;1.00
10453;DHT22;5274;51.992;8.518;2022-09-23T16:30:25;19.00;1.00
10453;DHT22;5274;51.992;8.518;2022-09-23T16:32:51;19.00;1.00
10453;DHT22;5274;51.992;8.518;2022-09-23T16:35:18;18.90;1.00
10453;DHT22;5274;51.992;8.518;2022-09-23T16:37:45;18.80;1.00
10453;DHT22;5274;51.992;8.518;2022-09-23T16:40:12;18.70;1.00
10453;DHT22;5274;51.992;8.518;2022-09-23T16:42:42;18.60;1.00
10453;DHT22;5274;51.992;8.518;2022-09-23T16:45:09;18.50;1.00
10453;DHT22;5274;51.992;8.518;2022-09-23T16:47:41;18.40;1.00
10453;DHT22;5274;51.992;8.518;2022-09-23T16:50:09;18.40;1.00
10453;DHT22;5274;51.992;8.518;2022-09-23T16:52:35;18.20;1.00
10453;DHT22;5274;51.992;8.518;2022-09-23T16:55:01;18.00;1.00
10453;DHT22;5274;51.992;8.518;2022-09-23T16:57:26;17.90;1.00
10453;DHT22;5274;51.992;8.518;2022-09-23T16:59:54;17.90;7.10
10453;DHT22;5274;51.992;8.518;2022-09-23T17:02:38;17.70;8.20
10453;DHT22;5274;51.992;8.518;2022-09-23T17:05:22;17.80;9.70
10453;DHT22;5274;51.992;8.518;2022-09-23T17:07:47;17.70;14.20
10453;DHT22;5274;51.992;8.518;2022-09-23T17:10:13;17.60;16.40
10453;DHT22;5274;51.992;8.518;2022-09-23T17:12:39;17.60;22.10
10453;DHT22;5274;51.992;8.518;2022-09-23T17:15:06;17.50;20.00
10453;DHT22;5274;51.992;8.518;2022-09-23T17:17:35;17.40;27.80
10453;DHT22;5274;51.992;8.518;2022-09-23T17:20:02;17.30;32.50
10453;DHT22;5274;51.992;8.518;2022-09-23T17:22:29;17.20;48.00
10453;DHT22;5274;51.992;8.518;2022-09-23T17:24:54;17.20;60.60
10453;DHT22;5274;51.992;8.518;2022-09-23T17:27:20;17.00;50.00
10453;DHT22;5274;51.992;8.518;2022-09-23T17:29:45;17.00;67.90
10453;DHT22;5274;51.992;8.518;2022-09-23T17:32:11;16.90;76.20
10453;DHT22;5274;51.992;8.518;2022-09-23T17:34:36;16.90;75.10
10453;DHT22;5274;51.992;8.518;2022-09-23T17:37:02;16.80;69.30
10453;DHT22;5274;51.992;8.518;2022-09-23T17:39:28;16.60;59.70
10453;DHT22;5274;51.992;8.518;2022-09-23T17:41:53;16.60;85.40
10453;DHT22;5274;51.992;8.518;2022-09-23T17:44:21;16.50;98.80
10453;DHT22;5274;51.992;8.518;2022-09-23T17:46:48;16.50;97.10
10453;DHT22;5274;51.992;8.518;2022-09-23T17:49:15;16.40;92.00
10453;DHT22;5274;51.992;8.518;2022-09-23T17:51:42;16.20;93.40
10453;DHT22;5274;51.992;8.518;2022-09-23T17:54:08;16.20;92.60
10453;DHT22;5274;51.992;8.518;2022-09-23T17:56:34;16.20;96.20
10453;DHT22;5274;51.992;8.518;2022-09-23T17:59:00;16.10;99.90
10453;DHT22;5274;51.992;8.518;2022-09-23T18:01:26;16.00;99.90
10453;DHT22;5274;51.992;8.518;2022-09-23T18:04:00;15.90;99.90
10453;DHT22;5274;51.992;8.518;2022-09-23T18:06:28;15.90;99.90
10453;DHT22;5274;51.992;8.518;2022-09-23T18:08:57;15.90;99.90
10453;DHT22;5274;51.992;8.518;2022-09-23T18:11:26;15.70;99.90
10453;DHT22;5274;51.992;8.518;2022-09-23T18:13:57;15.80;99.90
10453;DHT22;5274;51.992;8.518;2022-09-23T18:16:26;15.70;99.90
10453;DHT22;5274;51.992;8.518;2022-09-23T18:18:56;15.70;99.90
10453;DHT22;5274;51.992;8.518;2022-09-23T18:21:24;15.60;99.90
10453;DHT22;5274;51.992;8.518;2022-09-23T18:23:50;15.60;99.90
10453;DHT22;5274;51.992;8.518;2022-09-23T18:26:17;15.50;99.90
10453;DHT22;5274;51.992;8.518;2022-09-23T18:28:43;15.50;99.90
10453;DHT22;5274;51.992;8.518;2022-09-23T18:31:09;15.40;99.90